SHT21D EGJB-EGLL
Flight info
| Callsign | SHT21D |
|---|---|
| Flight time | 0h 37m |
| Altitude | 19000 |
| Route | ORIST L982 ROXOG |
| Aircraft | A319/M-SDE3FGHIRWY/LB1 |
Departure
| Time | 2026-04-21 12:10 |
|---|---|
| Airport | Guernsey Airport (EGJB) |
Arrival
| Time | 2026-04-21 12:48 |
|---|---|
| Airport | London Heathrow Airport (EGLL) |
| Time | Latitude | Longitude | Altitude | Speed | Heading |
|---|---|---|---|---|---|
| 2026-04-21 11:50 | 49.43277 | -2.59563 | 351 ft | 0 kts | 176° |
| 2026-04-21 12:03 | 49.43278 | -2.59563 | 345 ft | 2 kts | 176° |
| 2026-04-21 12:03 | 49.43304 | -2.59565 | 353 ft | 4 kts | 181° |
| 2026-04-21 12:03 | 49.43331 | -2.59562 | 352 ft | 4 kts | 191° |
| 2026-04-21 12:04 | 49.43355 | -2.59549 | 351 ft | 4 kts | 220° |
| 2026-04-21 12:04 | 49.43365 | -2.59527 | 355 ft | 1 kts | 267° |
| 2026-04-21 12:04 | 49.43366 | -2.59521 | 352 ft | 0 kts | 267° |
| 2026-04-21 12:06 | 49.43364 | -2.59570 | 352 ft | 11 kts | 267° |
| 2026-04-21 12:06 | 49.43356 | -2.59720 | 345 ft | 17 kts | 259° |
| 2026-04-21 12:07 | 49.43343 | -2.59922 | 345 ft | 21 kts | 266° |
| 2026-04-21 12:07 | 49.43336 | -2.60163 | 341 ft | 25 kts | 268° |
| 2026-04-21 12:07 | 49.43330 | -2.60389 | 335 ft | 23 kts | 268° |
| 2026-04-21 12:07 | 49.43333 | -2.60658 | 329 ft | 28 kts | 280° |
| 2026-04-21 12:08 | 49.43359 | -2.60885 | 324 ft | 15 kts | 279° |
| 2026-04-21 12:08 | 49.43362 | -2.61078 | 319 ft | 21 kts | 267° |
| 2026-04-21 12:08 | 49.43368 | -2.61263 | 314 ft | 16 kts | 299° |
| 2026-04-21 12:08 | 49.43421 | -2.61350 | 313 ft | 11 kts | 330° |
| 2026-04-21 12:09 | 49.43468 | -2.61315 | 314 ft | 7 kts | 86° |
| 2026-04-21 12:09 | 49.43468 | -2.61290 | 314 ft | 0 kts | 91° |
| 2026-04-21 12:09 | 49.43467 | -2.61258 | 315 ft | 25 kts | 91° |
| 2026-04-21 12:09 | 49.43490 | -2.60467 | 332 ft | 120 kts | 87° |
| 2026-04-21 12:10 | 49.43534 | -2.58970 | 915 ft | 139 kts | 84° |
| 2026-04-21 12:10 | 49.43573 | -2.57482 | 1960 ft | 144 kts | 86° |
| 2026-04-21 12:10 | 49.43617 | -2.55863 | 2572 ft | 161 kts | 87° |
| 2026-04-21 12:10 | 49.43667 | -2.54027 | 3071 ft | 183 kts | 87° |
| 2026-04-21 12:11 | 49.43724 | -2.52024 | 3897 ft | 190 kts | 87° |
| 2026-04-21 12:11 | 49.44064 | -2.50045 | 4819 ft | 199 kts | 61° |
| 2026-04-21 12:11 | 49.45122 | -2.48586 | 5658 ft | 216 kts | 28° |
| 2026-04-21 12:11 | 49.46593 | -2.47944 | 6663 ft | 221 kts | 19° |
| 2026-04-21 12:12 | 49.48100 | -2.47384 | 7618 ft | 226 kts | 17° |
| 2026-04-21 12:12 | 49.49720 | -2.46781 | 8177 ft | 251 kts | 15° |
| 2026-04-21 12:12 | 49.51496 | -2.46115 | 8805 ft | 272 kts | 16° |
| 2026-04-21 12:12 | 49.53365 | -2.45414 | 9735 ft | 279 kts | 15° |
| 2026-04-21 12:13 | 49.55274 | -2.44695 | 10651 ft | 285 kts | 15° |
| 2026-04-21 12:13 | 49.57217 | -2.43959 | 11575 ft | 289 kts | 14° |
| 2026-04-21 12:13 | 49.59176 | -2.43215 | 12560 ft | 291 kts | 13° |
| 2026-04-21 12:13 | 49.61155 | -2.42463 | 13477 ft | 295 kts | 13° |
| 2026-04-21 12:14 | 49.63165 | -2.41692 | 14367 ft | 298 kts | 12° |
| 2026-04-21 12:14 | 49.65187 | -2.40917 | 15196 ft | 301 kts | 11° |
| 2026-04-21 12:14 | 49.67234 | -2.40132 | 15987 ft | 306 kts | 11° |
| 2026-04-21 12:14 | 49.69265 | -2.39026 | 16750 ft | 315 kts | 22° |
| 2026-04-21 12:15 | 49.71119 | -2.37181 | 17297 ft | 334 kts | 36° |
| 2026-04-21 12:15 | 49.72787 | -2.34478 | 17476 ft | 361 kts | 46° |
| 2026-04-21 12:15 | 49.74431 | -2.31463 | 17954 ft | 372 kts | 46° |
| 2026-04-21 12:15 | 49.76114 | -2.28382 | 18622 ft | 377 kts | 45° |
| 2026-04-21 12:16 | 49.77818 | -2.25267 | 19063 ft | 382 kts | 45° |
| 2026-04-21 12:16 | 49.79534 | -2.22131 | 19188 ft | 382 kts | 45° |
| 2026-04-21 12:16 | 49.81254 | -2.18988 | 19224 ft | 383 kts | 45° |
| 2026-04-21 12:16 | 49.82979 | -2.15833 | 19226 ft | 384 kts | 45° |
| 2026-04-21 12:17 | 49.84705 | -2.12673 | 19223 ft | 384 kts | 45° |
| 2026-04-21 12:17 | 49.86431 | -2.09514 | 19234 ft | 384 kts | 45° |
| 2026-04-21 12:17 | 49.88154 | -2.06355 | 19233 ft | 384 kts | 45° |
| 2026-04-21 12:17 | 49.89875 | -2.03189 | 19231 ft | 384 kts | 45° |
| 2026-04-21 12:18 | 49.91596 | -2.00024 | 19236 ft | 384 kts | 45° |
| 2026-04-21 12:18 | 49.93320 | -1.96856 | 19242 ft | 384 kts | 45° |
| 2026-04-21 12:18 | 49.95043 | -1.93686 | 19247 ft | 384 kts | 45° |
| 2026-04-21 12:18 | 49.96765 | -1.90510 | 19263 ft | 384 kts | 45° |
| 2026-04-21 12:19 | 49.98488 | -1.87348 | 19265 ft | 382 kts | 43° |
| 2026-04-21 12:19 | 50.00426 | -1.84577 | 19269 ft | 376 kts | 32° |
| 2026-04-21 12:19 | 50.02617 | -1.82422 | 19271 ft | 370 kts | 23° |
| 2026-04-21 12:19 | 50.04913 | -1.80612 | 19283 ft | 370 kts | 22° |
| 2026-04-21 12:20 | 50.07206 | -1.78804 | 19288 ft | 369 kts | 22° |
| 2026-04-21 12:20 | 50.09497 | -1.76996 | 19273 ft | 369 kts | 22° |
| 2026-04-21 12:20 | 50.11771 | -1.75155 | 19270 ft | 370 kts | 26° |
| 2026-04-21 12:20 | 50.13876 | -1.72803 | 19275 ft | 375 kts | 35° |
| 2026-04-21 12:21 | 50.15857 | -1.70233 | 19272 ft | 375 kts | 35° |
| 2026-04-21 12:21 | 50.17861 | -1.67627 | 19268 ft | 375 kts | 35° |
| 2026-04-21 12:21 | 50.19861 | -1.65022 | 19282 ft | 375 kts | 35° |
| 2026-04-21 12:21 | 50.21865 | -1.62417 | 19280 ft | 375 kts | 35° |
| 2026-04-21 12:22 | 50.23869 | -1.59815 | 19287 ft | 375 kts | 35° |
| 2026-04-21 12:22 | 50.25931 | -1.57353 | 19283 ft | 371 kts | 28° |
| 2026-04-21 12:22 | 50.28203 | -1.55518 | 19282 ft | 365 kts | 17° |
| 2026-04-21 12:22 | 50.30636 | -1.54269 | 19281 ft | 363 kts | 13° |
| 2026-04-21 12:23 | 50.33016 | -1.53123 | 19280 ft | 363 kts | 13° |
| 2026-04-21 12:23 | 50.35427 | -1.51947 | 19279 ft | 363 kts | 13° |
| 2026-04-21 12:23 | 50.37838 | -1.50764 | 19278 ft | 363 kts | 13° |
| 2026-04-21 12:23 | 50.40246 | -1.49579 | 19278 ft | 363 kts | 13° |
| 2026-04-21 12:24 | 50.42657 | -1.48392 | 19289 ft | 363 kts | 14° |
| 2026-04-21 12:24 | 50.45067 | -1.47203 | 19286 ft | 363 kts | 14° |
| 2026-04-21 12:24 | 50.47478 | -1.46010 | 19281 ft | 363 kts | 14° |
| 2026-04-21 12:24 | 50.49890 | -1.44819 | 19280 ft | 363 kts | 14° |
| 2026-04-21 12:25 | 50.52304 | -1.43626 | 19280 ft | 363 kts | 14° |
| 2026-04-21 12:25 | 50.54655 | -1.42148 | 19277 ft | 367 kts | 23° |
| 2026-04-21 12:25 | 50.56907 | -1.40225 | 19274 ft | 368 kts | 25° |
| 2026-04-21 12:25 | 50.59154 | -1.38298 | 19287 ft | 368 kts | 25° |
| 2026-04-21 12:26 | 50.61402 | -1.36371 | 19289 ft | 368 kts | 24° |
| 2026-04-21 12:26 | 50.63647 | -1.34445 | 19293 ft | 367 kts | 25° |
| 2026-04-21 12:26 | 50.65894 | -1.32512 | 19305 ft | 367 kts | 25° |
| 2026-04-21 12:26 | 50.68104 | -1.30605 | 19306 ft | 366 kts | 25° |
| 2026-04-21 12:27 | 50.70337 | -1.28676 | 19305 ft | 366 kts | 25° |
| 2026-04-21 12:27 | 50.72570 | -1.26740 | 19306 ft | 366 kts | 25° |
| 2026-04-21 12:27 | 50.74799 | -1.24806 | 19304 ft | 366 kts | 25° |
| 2026-04-21 12:27 | 50.77018 | -1.22846 | 19304 ft | 366 kts | 26° |
| 2026-04-21 12:28 | 50.79191 | -1.20745 | 19309 ft | 366 kts | 28° |
| 2026-04-21 12:28 | 50.81317 | -1.18553 | 18973 ft | 365 kts | 30° |
| 2026-04-21 12:28 | 50.83439 | -1.16305 | 18235 ft | 368 kts | 31° |
| 2026-04-21 12:28 | 50.85552 | -1.14052 | 17591 ft | 365 kts | 31° |
| 2026-04-21 12:29 | 50.87649 | -1.11834 | 16973 ft | 360 kts | 31° |
| 2026-04-21 12:29 | 50.89723 | -1.09660 | 16355 ft | 356 kts | 32° |
| 2026-04-21 12:29 | 50.91779 | -1.07520 | 15763 ft | 352 kts | 32° |
| 2026-04-21 12:29 | 50.93815 | -1.05409 | 15123 ft | 348 kts | 33° |
| 2026-04-21 12:30 | 50.95838 | -1.03313 | 14487 ft | 346 kts | 33° |
| 2026-04-21 12:30 | 50.97847 | -1.01290 | 14212 ft | 333 kts | 33° |
| 2026-04-21 12:30 | 50.99765 | -0.99304 | 14160 ft | 327 kts | 39° |
| 2026-04-21 12:30 | 51.01351 | -0.96774 | 13894 ft | 321 kts | 49° |
| 2026-04-21 12:31 | 51.02847 | -0.94143 | 13639 ft | 320 kts | 49° |
| 2026-04-21 12:31 | 51.04330 | -0.91528 | 13367 ft | 317 kts | 50° |
| 2026-04-21 12:31 | 51.05793 | -0.88942 | 13099 ft | 313 kts | 50° |
| 2026-04-21 12:31 | 51.07248 | -0.86359 | 12836 ft | 313 kts | 50° |
| 2026-04-21 12:32 | 51.08694 | -0.83786 | 12573 ft | 311 kts | 50° |
| 2026-04-21 12:32 | 51.10137 | -0.81218 | 12310 ft | 310 kts | 50° |
| 2026-04-21 12:32 | 51.11564 | -0.78676 | 11942 ft | 306 kts | 51° |
| 2026-04-21 12:32 | 51.12972 | -0.76170 | 11492 ft | 302 kts | 51° |
| 2026-04-21 12:33 | 51.14344 | -0.73719 | 11045 ft | 299 kts | 51° |
| 2026-04-21 12:33 | 51.15737 | -0.71227 | 10631 ft | 295 kts | 51° |
| 2026-04-21 12:33 | 51.17072 | -0.68843 | 10498 ft | 282 kts | 51° |
| 2026-04-21 12:33 | 51.18342 | -0.66577 | 10279 ft | 274 kts | 51° |
| 2026-04-21 12:34 | 51.19597 | -0.64332 | 10141 ft | 269 kts | 51° |
| 2026-04-21 12:34 | 51.20845 | -0.62098 | 9763 ft | 272 kts | 51° |
| 2026-04-21 12:34 | 51.22106 | -0.59833 | 9369 ft | 270 kts | 51° |
| 2026-04-21 12:34 | 51.23343 | -0.57605 | 8943 ft | 266 kts | 51° |
| 2026-04-21 12:35 | 51.24567 | -0.55405 | 8373 ft | 264 kts | 51° |
| 2026-04-21 12:35 | 51.25780 | -0.53223 | 7908 ft | 259 kts | 52° |
| 2026-04-21 12:35 | 51.26973 | -0.51205 | 7771 ft | 244 kts | 43° |
| 2026-04-21 12:35 | 51.28477 | -0.50060 | 7565 ft | 243 kts | 16° |
| 2026-04-21 12:36 | 51.30171 | -0.50206 | 7318 ft | 251 kts | 348° |
| 2026-04-21 12:36 | 51.31662 | -0.51749 | 6996 ft | 263 kts | 314° |
| 2026-04-21 12:36 | 51.32492 | -0.54334 | 6987 ft | 263 kts | 290° |
| 2026-04-21 12:36 | 51.33069 | -0.57121 | 7013 ft | 264 kts | 289° |
| 2026-04-21 12:37 | 51.33638 | -0.59909 | 7002 ft | 263 kts | 289° |
| 2026-04-21 12:37 | 51.34202 | -0.62691 | 6999 ft | 263 kts | 290° |
| 2026-04-21 12:37 | 51.34767 | -0.65471 | 6999 ft | 264 kts | 290° |
| 2026-04-21 12:37 | 51.35330 | -0.68297 | 6677 ft | 267 kts | 289° |
| 2026-04-21 12:38 | 51.35883 | -0.71124 | 6383 ft | 266 kts | 289° |
| 2026-04-21 12:38 | 51.36428 | -0.73937 | 6103 ft | 264 kts | 289° |
| 2026-04-21 12:38 | 51.36946 | -0.76744 | 5810 ft | 263 kts | 288° |
| 2026-04-21 12:38 | 51.37443 | -0.79548 | 5521 ft | 261 kts | 288° |
| 2026-04-21 12:39 | 51.37927 | -0.82344 | 5231 ft | 259 kts | 288° |
| 2026-04-21 12:39 | 51.38408 | -0.85116 | 4951 ft | 257 kts | 288° |
| 2026-04-21 12:39 | 51.38889 | -0.87860 | 4657 ft | 255 kts | 290° |
| 2026-04-21 12:39 | 51.39760 | -0.90226 | 4363 ft | 242 kts | 322° |
| 2026-04-21 12:40 | 51.41159 | -0.91452 | 4075 ft | 222 kts | 352° |
| 2026-04-21 12:40 | 51.42636 | -0.91735 | 3793 ft | 207 kts | 8° |
| 2026-04-21 12:40 | 51.44010 | -0.91368 | 3516 ft | 195 kts | 23° |
| 2026-04-21 12:40 | 51.45175 | -0.90500 | 3461 ft | 173 kts | 37° |
| 2026-04-21 12:41 | 51.46078 | -0.89338 | 3481 ft | 166 kts | 49° |
| 2026-04-21 12:41 | 51.46780 | -0.87911 | 3478 ft | 161 kts | 60° |
| 2026-04-21 12:41 | 51.47256 | -0.86325 | 3477 ft | 159 kts | 71° |
| 2026-04-21 12:41 | 51.47514 | -0.84585 | 3483 ft | 162 kts | 82° |
| 2026-04-21 12:42 | 51.47557 | -0.82763 | 3481 ft | 164 kts | 88° |
| 2026-04-21 12:42 | 51.47570 | -0.80934 | 3481 ft | 164 kts | 88° |
| 2026-04-21 12:42 | 51.47582 | -0.79117 | 3483 ft | 162 kts | 87° |
| 2026-04-21 12:42 | 51.47590 | -0.77925 | 3483 ft | 161 kts | 87° |
| 2026-04-21 12:43 | 51.47602 | -0.76121 | 3444 ft | 162 kts | 87° |
| 2026-04-21 12:43 | 51.47614 | -0.74313 | 3291 ft | 163 kts | 88° |
| 2026-04-21 12:43 | 51.47625 | -0.72491 | 3090 ft | 163 kts | 88° |
| 2026-04-21 12:43 | 51.47636 | -0.70684 | 2877 ft | 161 kts | 88° |
| 2026-04-21 12:44 | 51.47647 | -0.68886 | 2661 ft | 161 kts | 88° |
| 2026-04-21 12:44 | 51.47657 | -0.67097 | 2439 ft | 160 kts | 88° |
| 2026-04-21 12:44 | 51.47667 | -0.65335 | 2221 ft | 153 kts | 88° |
| 2026-04-21 12:44 | 51.47675 | -0.63682 | 2016 ft | 144 kts | 88° |
| 2026-04-21 12:45 | 51.47684 | -0.62101 | 1816 ft | 141 kts | 88° |
| 2026-04-21 12:45 | 51.47692 | -0.60543 | 1632 ft | 139 kts | 88° |
| 2026-04-21 12:45 | 51.47700 | -0.58996 | 1436 ft | 138 kts | 89° |
| 2026-04-21 12:45 | 51.47708 | -0.57466 | 1259 ft | 133 kts | 88° |
| 2026-04-21 12:46 | 51.47714 | -0.56084 | 1078 ft | 119 kts | 88° |
| 2026-04-21 12:46 | 51.47720 | -0.54794 | 914 ft | 113 kts | 87° |
| 2026-04-21 12:46 | 51.47726 | -0.53534 | 754 ft | 112 kts | 87° |
| 2026-04-21 12:46 | 51.47727 | -0.52303 | 607 ft | 110 kts | 86° |
| 2026-04-21 12:47 | 51.47739 | -0.51052 | 462 ft | 113 kts | 90° |
| 2026-04-21 12:47 | 51.47746 | -0.49800 | 279 ft | 113 kts | 89° |
| 2026-04-21 12:47 | 51.47750 | -0.48552 | 125 ft | 111 kts | 88° |
| 2026-04-21 12:47 | 51.47755 | -0.47451 | 85 ft | 81 kts | 90° |
| 2026-04-21 12:48 | 51.47758 | -0.46819 | 91 ft | 39 kts | 90° |
| 2026-04-21 12:48 | 51.47758 | -0.46375 | 89 ft | 29 kts | 89° |
| 2026-04-21 12:48 | 51.47703 | -0.46139 | 88 ft | 18 kts | 147° |
| 2026-04-21 12:48 | 51.47617 | -0.46062 | 89 ft | 11 kts | 179° |
| 2026-04-21 12:49 | 51.47593 | -0.46190 | 86 ft | 14 kts | 270° |
| 2026-04-21 12:49 | 51.47593 | -0.46366 | 86 ft | 17 kts | 270° |
| 2026-04-21 12:49 | 51.47593 | -0.46578 | 86 ft | 20 kts | 270° |
| 2026-04-21 12:49 | 51.47590 | -0.46812 | 86 ft | 21 kts | 266° |
| 2026-04-21 12:50 | 51.47583 | -0.47061 | 86 ft | 24 kts | 270° |
| 2026-04-21 12:50 | 51.47582 | -0.47345 | 86 ft | 27 kts | 270° |
| 2026-04-21 12:50 | 51.47580 | -0.47644 | 89 ft | 25 kts | 269° |
| 2026-04-21 12:50 | 51.47579 | -0.47903 | 86 ft | 20 kts | 269° |
| 2026-04-21 12:51 | 51.47579 | -0.48099 | 86 ft | 17 kts | 270° |
| 2026-04-21 12:51 | 51.47578 | -0.48302 | 90 ft | 19 kts | 270° |
| 2026-04-21 12:51 | 51.47561 | -0.48463 | 89 ft | 14 kts | 221° |
| 2026-04-21 12:51 | 51.47487 | -0.48542 | 86 ft | 15 kts | 261° |
| 2026-04-21 12:52 | 51.47487 | -0.48680 | 88 ft | 9 kts | 270° |
| 2026-04-21 12:52 | 51.47487 | -0.48799 | 88 ft | 10 kts | 269° |
| 2026-04-21 12:52 | 51.47480 | -0.48889 | 89 ft | 6 kts | 219° |
| 2026-04-21 12:52 | 51.47435 | -0.48891 | 86 ft | 6 kts | 179° |
| 2026-04-21 12:53 | 51.47409 | -0.48891 | 86 ft | 1 kts | 179° |
| 2026-04-21 12:53 | 51.47403 | -0.48891 | 86 ft | 0 kts | 179° |